createdAt,value
2023-06-15T00:00:06.311Z,16.48
2023-06-15T00:00:38.801Z,16.44
2023-06-15T00:01:11.273Z,16.42
2023-06-15T00:01:43.755Z,16.40
2023-06-15T00:02:16.263Z,16.40
2023-06-15T00:02:48.988Z,16.38
2023-06-15T00:03:21.416Z,16.34
2023-06-15T00:03:53.724Z,16.33
2023-06-15T00:04:26.182Z,16.34
2023-06-15T00:04:58.607Z,16.33
2023-06-15T00:05:31.085Z,16.34
2023-06-15T00:06:03.577Z,16.37
2023-06-15T00:06:36.086Z,16.37
2023-06-15T00:07:15.605Z,16.42
2023-06-15T00:07:55.165Z,16.48
2023-06-15T00:08:34.696Z,16.49
2023-06-15T00:09:15.141Z,16.49
2023-06-15T00:09:54.616Z,16.45
2023-06-15T00:10:34.214Z,16.48
2023-06-15T00:11:13.720Z,16.44
2023-06-15T00:11:46.220Z,16.42
2023-06-15T00:12:18.775Z,16.40
2023-06-15T00:12:51.250Z,16.38
2023-06-15T00:13:23.682Z,16.34
2023-06-15T00:13:56.131Z,16.33
2023-06-15T00:14:28.568Z,16.31
2023-06-15T00:15:01.043Z,16.26
2023-06-15T00:15:33.616Z,16.22
2023-06-15T00:16:06.118Z,16.22
2023-06-15T00:16:38.491Z,16.20
2023-06-15T00:17:10.935Z,16.16
2023-06-15T00:17:43.730Z,16.14
2023-06-15T00:18:15.986Z,16.12
2023-06-15T00:18:48.513Z,16.07
2023-06-15T00:19:21.004Z,16.07
2023-06-15T00:19:53.521Z,16.06
2023-06-15T00:20:26.018Z,16.03
2023-06-15T00:20:58.521Z,16.00
2023-06-15T00:21:30.935Z,15.97
2023-06-15T00:22:03.436Z,15.96
2023-06-15T00:22:35.849Z,15.93
2023-06-15T00:23:08.325Z,15.93
2023-06-15T00:23:40.819Z,15.89
2023-06-15T00:24:13.365Z,15.88
2023-06-15T00:24:45.765Z,15.86
2023-06-15T00:25:18.421Z,15.86
2023-06-15T00:25:50.630Z,15.86
2023-06-15T00:26:23.117Z,15.84
2023-06-15T00:26:55.537Z,15.86
2023-06-15T00:27:28.013Z,15.82
2023-06-15T00:28:00.457Z,15.84
2023-06-15T00:28:32.977Z,15.84
2023-06-15T00:29:05.471Z,15.84
2023-06-15T00:29:37.925Z,15.82
2023-06-15T00:30:10.421Z,15.81
2023-06-15T00:30:42.884Z,15.79
2023-06-15T00:31:15.383Z,15.79
2023-06-15T00:31:47.885Z,15.78
2023-06-15T00:32:20.318Z,15.76
2023-06-15T00:32:52.798Z,15.76
2023-06-15T00:33:25.213Z,15.76
2023-06-15T00:33:57.654Z,15.75
2023-06-15T00:34:30.151Z,15.75
2023-06-15T00:35:02.663Z,15.74
2023-06-15T00:35:35.145Z,15.72
2023-06-15T00:36:07.681Z,15.74
2023-06-15T00:36:40.195Z,15.72
2023-06-15T00:37:12.625Z,15.67
2023-06-15T00:37:45.137Z,15.67
2023-06-15T00:38:17.590Z,15.66
2023-06-15T00:38:50.014Z,15.63
2023-06-15T00:39:22.445Z,15.63
2023-06-15T00:39:54.937Z,15.66
2023-06-15T00:40:27.468Z,15.68
2023-06-15T00:41:00.025Z,15.68
2023-06-15T00:41:32.561Z,15.72
2023-06-15T00:42:05.065Z,15.70
2023-06-15T00:42:37.590Z,15.72
2023-06-15T00:43:10.067Z,15.72
2023-06-15T00:43:42.570Z,15.72
2023-06-15T00:44:15.084Z,15.70
2023-06-15T00:44:47.546Z,15.70
2023-06-15T00:45:20.268Z,15.70
2023-06-15T00:45:52.540Z,15.67
2023-06-15T00:46:25.044Z,15.68
2023-06-15T00:46:57.519Z,15.67
2023-06-15T00:47:29.958Z,15.68
2023-06-15T00:48:02.566Z,15.68
2023-06-15T00:48:34.984Z,15.68
2023-06-15T00:49:07.539Z,15.67
2023-06-15T00:49:40.002Z,15.68
2023-06-15T00:50:12.514Z,15.67
2023-06-15T00:50:45.030Z,15.68
2023-06-15T00:51:17.438Z,15.66
2023-06-15T00:51:49.914Z,15.66
2023-06-15T00:52:22.389Z,15.66
2023-06-15T00:52:57.355Z,15.66
2023-06-15T00:53:27.389Z,15.67
2023-06-15T00:53:59.826Z,15.67
2023-06-15T00:54:32.287Z,15.68
2023-06-15T00:55:04.752Z,15.72
2023-06-15T00:55:37.209Z,15.72
2023-06-15T00:56:09.652Z,15.72
2023-06-15T00:56:42.128Z,15.72
2023-06-15T00:57:14.604Z,15.68
2023-06-15T00:57:47.095Z,15.72
2023-06-15T00:58:19.575Z,15.67
2023-06-15T00:58:52.077Z,15.66
2023-06-15T00:59:24.571Z,15.66
2023-06-15T00:59:57.039Z,15.63
2023-06-15T01:00:29.494Z,15.61
2023-06-15T01:01:01.945Z,15.57
2023-06-15T01:01:34.443Z,15.57
2023-06-15T01:02:06.787Z,15.56
2023-06-15T01:02:39.280Z,15.54
2023-06-15T01:03:11.719Z,15.51
2023-06-15T01:03:44.109Z,15.51
2023-06-15T01:04:16.551Z,15.49
2023-06-15T01:04:49.036Z,15.49
2023-06-15T01:05:21.474Z,15.48
2023-06-15T01:05:54.013Z,15.48
2023-06-15T01:06:26.334Z,15.46
2023-06-15T01:06:58.769Z,15.43
2023-06-15T01:07:31.190Z,15.43
2023-06-15T01:08:03.697Z,15.42
2023-06-15T01:08:36.155Z,15.43
2023-06-15T01:09:08.580Z,15.41
2023-06-15T01:09:41.009Z,15.38
2023-06-15T01:10:13.454Z,15.38
2023-06-15T01:10:45.921Z,15.35
2023-06-15T01:11:18.427Z,15.35
2023-06-15T01:11:50.916Z,15.30
2023-06-15T01:12:23.443Z,15.28
2023-06-15T01:12:56.190Z,15.27
2023-06-15T01:13:28.363Z,15.24
2023-06-15T01:14:00.851Z,15.24
2023-06-15T01:14:33.288Z,15.24
2023-06-15T01:15:05.730Z,15.23
2023-06-15T01:15:38.229Z,15.21
2023-06-15T01:16:10.730Z,15.20
2023-06-15T01:16:43.256Z,15.20
2023-06-15T01:17:15.739Z,15.19
2023-06-15T01:17:48.172Z,15.20
2023-06-15T01:18:20.615Z,15.13
2023-06-15T01:18:53.108Z,15.15
2023-06-15T01:19:25.532Z,15.13
2023-06-15T01:19:57.958Z,15.12
2023-06-15T01:20:30.441Z,15.09
2023-06-15T01:21:02.904Z,15.11
2023-06-15T01:21:35.405Z,15.09
2023-06-15T01:22:07.859Z,15.08
2023-06-15T01:22:40.285Z,15.08
2023-06-15T01:23:12.777Z,15.06
2023-06-15T01:23:45.296Z,15.06
2023-06-15T01:24:17.685Z,15.06
2023-06-15T01:24:50.122Z,15.03
2023-06-15T01:25:22.613Z,15.03
2023-06-15T01:25:55.038Z,15.03
2023-06-15T01:26:27.444Z,15.03
2023-06-15T01:26:59.896Z,15.02
2023-06-15T01:27:32.325Z,15.01
2023-06-15T01:28:04.787Z,15.01
2023-06-15T01:28:37.212Z,15.02
2023-06-15T01:29:09.646Z,15.03
2023-06-15T01:29:42.146Z,15.05
2023-06-15T01:30:14.633Z,15.03
2023-06-15T01:30:47.218Z,15.05
2023-06-15T01:31:19.638Z,15.02
2023-06-15T01:31:52.174Z,15.01
2023-06-15T01:32:24.607Z,14.99
2023-06-15T01:32:57.116Z,14.98
2023-06-15T01:33:29.495Z,14.98
2023-06-15T01:34:01.980Z,14.94
2023-06-15T01:34:34.373Z,14.93
2023-06-15T01:35:06.797Z,14.93
2023-06-15T01:35:39.296Z,14.90
2023-06-15T01:36:11.762Z,14.90
2023-06-15T01:36:44.262Z,14.88
2023-06-15T01:37:16.761Z,14.88
2023-06-15T01:37:49.265Z,14.87
2023-06-15T01:38:21.700Z,14.87
2023-06-15T01:38:54.206Z,14.84
2023-06-15T01:39:26.680Z,14.84
2023-06-15T01:39:59.169Z,14.80
2023-06-15T01:40:31.671Z,14.81
2023-06-15T01:41:04.171Z,14.78
2023-06-15T01:41:36.652Z,14.80
2023-06-15T01:42:09.099Z,14.75
2023-06-15T01:42:41.534Z,14.78
2023-06-15T01:43:13.957Z,14.75
2023-06-15T01:43:46.406Z,14.75
2023-06-15T01:44:18.841Z,14.75
2023-06-15T01:44:51.382Z,14.78
2023-06-15T01:45:23.893Z,14.74
2023-06-15T01:45:56.342Z,14.80
2023-06-15T01:46:28.861Z,14.80
2023-06-15T01:47:01.304Z,14.80
2023-06-15T01:47:33.747Z,14.80
2023-06-15T01:48:06.165Z,14.78
2023-06-15T01:48:38.655Z,14.75
2023-06-15T01:49:11.155Z,14.75
2023-06-15T01:49:43.611Z,14.74
2023-06-15T01:50:16.063Z,14.72
2023-06-15T01:50:48.528Z,14.71
2023-06-15T01:51:21.027Z,14.69
2023-06-15T01:51:53.537Z,14.67
2023-06-15T01:52:26.040Z,14.67
2023-06-15T01:52:58.483Z,14.65
2023-06-15T01:53:30.928Z,14.65
2023-06-15T01:54:03.431Z,14.65
2023-06-15T01:54:35.924Z,14.67
2023-06-15T01:55:08.442Z,14.65
2023-06-15T01:55:40.877Z,14.65
2023-06-15T01:56:13.332Z,14.62
2023-06-15T01:56:45.839Z,14.61
2023-06-15T01:57:18.320Z,14.62
2023-06-15T01:57:50.828Z,14.61
2023-06-15T01:58:23.320Z,14.60
2023-06-15T01:58:55.820Z,14.56
2023-06-15T01:59:28.288Z,14.54
2023-06-15T02:00:00.810Z,14.54
2023-06-15T02:00:33.317Z,14.53
2023-06-15T02:01:05.839Z,14.53
2023-06-15T02:01:38.329Z,14.53
2023-06-15T02:02:10.784Z,14.52
2023-06-15T02:02:43.233Z,14.50
2023-06-15T02:03:15.664Z,14.50
2023-06-15T02:03:48.096Z,14.49
2023-06-15T02:04:20.583Z,14.49
2023-06-15T02:04:53.067Z,14.49
2023-06-15T02:05:25.521Z,14.47
2023-06-15T02:05:57.967Z,14.44
2023-06-15T02:06:30.426Z,14.43
2023-06-15T02:07:02.864Z,14.43
2023-06-15T02:07:35.302Z,14.43
2023-06-15T02:08:07.858Z,14.39
2023-06-15T02:08:40.369Z,14.39
2023-06-15T02:09:12.850Z,14.38
2023-06-15T02:09:45.364Z,14.38
2023-06-15T02:10:17.866Z,14.37
2023-06-15T02:10:50.373Z,14.35
2023-06-15T02:11:22.865Z,14.34
2023-06-15T02:11:55.369Z,14.34
2023-06-15T02:12:27.790Z,14.34
2023-06-15T02:13:00.288Z,14.32
2023-06-15T02:13:32.793Z,14.32
2023-06-15T02:14:05.290Z,14.32
2023-06-15T02:14:37.795Z,14.31
2023-06-15T02:15:10.238Z,14.31
2023-06-15T02:15:42.657Z,14.32
2023-06-15T02:16:15.102Z,14.32
2023-06-15T02:16:49.422Z,14.37
2023-06-15T02:17:20.085Z,14.39
2023-06-15T02:17:52.609Z,14.42
2023-06-15T02:18:25.097Z,14.39
2023-06-15T02:18:57.599Z,14.39
2023-06-15T02:19:30.066Z,14.39
2023-06-15T02:20:02.571Z,14.38
2023-06-15T02:20:35.277Z,14.37
2023-06-15T02:21:07.608Z,14.38
2023-06-15T02:21:40.095Z,14.37
2023-06-15T02:22:12.541Z,14.38
2023-06-15T02:22:44.979Z,14.38
2023-06-15T02:23:17.505Z,14.35
2023-06-15T02:23:50.068Z,14.34
2023-06-15T02:24:22.504Z,14.31
2023-06-15T02:24:54.922Z,14.31
2023-06-15T02:25:27.352Z,14.29
2023-06-15T02:25:59.823Z,14.29
2023-06-15T02:26:32.300Z,14.25
2023-06-15T02:27:04.778Z,14.25
2023-06-15T02:27:37.264Z,14.24
2023-06-15T02:28:09.754Z,14.19
2023-06-15T02:28:42.266Z,14.19
2023-06-15T02:29:14.693Z,14.17
2023-06-15T02:29:47.187Z,14.14
2023-06-15T02:30:19.635Z,14.14
2023-06-15T02:30:52.072Z,14.14
2023-06-15T02:31:24.509Z,14.14
2023-06-15T02:31:56.968Z,14.16
2023-06-15T02:32:29.504Z,14.16
2023-06-15T02:33:01.973Z,14.17
2023-06-15T02:33:34.399Z,14.16
2023-06-15T02:34:06.924Z,14.16
2023-06-15T02:34:39.418Z,14.14
2023-06-15T02:35:11.878Z,14.14
2023-06-15T02:35:44.304Z,14.13
2023-06-15T02:36:16.774Z,14.10
2023-06-15T02:36:49.210Z,14.10
2023-06-15T02:37:21.684Z,14.09
2023-06-15T02:37:54.128Z,14.07
2023-06-15T02:38:26.686Z,14.06
2023-06-15T02:38:59.173Z,14.04
2023-06-15T02:39:31.661Z,14.02
2023-06-15T02:40:04.109Z,14.02
2023-06-15T02:40:36.617Z,13.99
2023-06-15T02:41:09.126Z,14.02
2023-06-15T02:41:41.620Z,13.99
2023-06-15T02:42:14.079Z,13.99
2023-06-15T02:42:46.532Z,13.98
2023-06-15T02:43:19.039Z,13.98
2023-06-15T02:43:51.504Z,13.98
2023-06-15T02:44:24.089Z,13.96
2023-06-15T02:44:56.545Z,13.95
2023-06-15T02:45:28.997Z,13.95
2023-06-15T02:46:01.450Z,13.92
2023-06-15T02:46:33.901Z,13.92
2023-06-15T02:47:06.423Z,13.89
2023-06-15T02:47:39.073Z,13.91
2023-06-15T02:48:11.522Z,13.89
2023-06-15T02:48:44.014Z,13.88
2023-06-15T02:49:16.513Z,13.88
2023-06-15T02:49:49.005Z,13.88
2023-06-15T02:50:21.504Z,13.88
2023-06-15T02:50:53.996Z,13.88
2023-06-15T02:51:26.477Z,13.91
2023-06-15T02:51:58.993Z,13.92
2023-06-15T02:52:31.464Z,13.94
2023-06-15T02:53:03.905Z,13.95
2023-06-15T02:53:36.389Z,13.98
2023-06-15T02:54:15.907Z,14.01
2023-06-15T02:54:56.283Z,14.02
2023-06-15T02:55:35.851Z,14.04
2023-06-15T02:56:15.385Z,14.04
2023-06-15T02:56:54.955Z,14.06
2023-06-15T02:57:34.424Z,14.04
2023-06-15T02:58:13.916Z,14.04
2023-06-15T02:58:46.374Z,14.02
2023-06-15T02:59:18.865Z,14.04
2023-06-15T02:59:51.311Z,14.02
2023-06-15T03:00:23.757Z,14.02
2023-06-15T03:00:56.232Z,13.99
2023-06-15T03:01:28.725Z,14.01
2023-06-15T03:02:01.227Z,13.99
2023-06-15T03:02:33.804Z,13.99
2023-06-15T03:03:06.254Z,13.99
2023-06-15T03:03:38.651Z,14.02
2023-06-15T03:04:11.409Z,14.01
2023-06-15T03:04:43.695Z,14.04
2023-06-15T03:05:16.452Z,14.06
2023-06-15T03:05:48.729Z,14.07
2023-06-15T03:06:21.240Z,14.06
2023-06-15T03:06:53.767Z,14.07
2023-06-15T03:07:26.256Z,14.04
2023-06-15T03:07:58.702Z,14.07
2023-06-15T03:08:31.124Z,14.07
2023-06-15T03:09:03.608Z,14.07
2023-06-15T03:09:36.107Z,14.07
2023-06-15T03:10:08.610Z,14.07
2023-06-15T03:10:41.059Z,14.04
2023-06-15T03:11:13.512Z,14.06
2023-06-15T03:11:46.056Z,14.06
2023-06-15T03:12:18.518Z,14.06
2023-06-15T03:12:51.021Z,14.04
2023-06-15T03:13:23.521Z,14.04
2023-06-15T03:13:55.997Z,14.02
2023-06-15T03:14:28.472Z,14.01
2023-06-15T03:15:00.942Z,14.01
2023-06-15T03:15:33.419Z,13.98
2023-06-15T03:16:05.845Z,13.98
2023-06-15T03:16:38.295Z,13.98
2023-06-15T03:17:10.788Z,13.99
2023-06-15T03:17:43.352Z,13.99
2023-06-15T03:18:15.840Z,13.99
2023-06-15T03:18:48.257Z,13.99
2023-06-15T03:19:20.710Z,13.98
2023-06-15T03:19:53.166Z,13.98
2023-06-15T03:20:25.588Z,13.96
2023-06-15T03:20:58.119Z,13.98
2023-06-15T03:21:30.713Z,13.96
2023-06-15T03:22:03.139Z,13.98
2023-06-15T03:22:35.681Z,13.96
2023-06-15T03:23:09.615Z,13.96
2023-06-15T03:23:40.621Z,13.96
2023-06-15T03:24:13.080Z,13.96
2023-06-15T03:24:45.809Z,13.94
2023-06-15T03:25:18.213Z,13.94
2023-06-15T03:25:50.514Z,13.94
2023-06-15T03:26:23.005Z,13.92
2023-06-15T03:26:55.513Z,13.89
2023-06-15T03:27:27.953Z,13.88
2023-06-15T03:28:00.411Z,13.89
2023-06-15T03:28:32.906Z,13.91
2023-06-15T03:29:05.393Z,13.91
2023-06-15T03:29:37.936Z,13.91
2023-06-15T03:30:10.357Z,13.91
2023-06-15T03:30:42.888Z,13.92
2023-06-15T03:31:15.305Z,13.89
2023-06-15T03:31:47.733Z,13.89
2023-06-15T03:32:20.266Z,13.91
2023-06-15T03:32:52.801Z,13.92
2023-06-15T03:33:25.240Z,13.92
2023-06-15T03:33:57.702Z,13.95
2023-06-15T03:34:30.153Z,13.94
2023-06-15T03:35:02.653Z,13.92
2023-06-15T03:35:35.153Z,13.94
2023-06-15T03:36:07.658Z,13.98
2023-06-15T03:36:40.212Z,13.95
2023-06-15T03:37:12.649Z,13.96
2023-06-15T03:37:45.095Z,13.96
2023-06-15T03:38:17.544Z,13.98
2023-06-15T03:38:50.003Z,13.98
2023-06-15T03:39:22.435Z,14.01
2023-06-15T03:39:54.963Z,14.01
2023-06-15T03:40:27.468Z,14.02
2023-06-15T03:40:59.972Z,14.04
2023-06-15T03:41:32.427Z,14.04
2023-06-15T03:42:04.838Z,14.04
2023-06-15T03:42:37.370Z,14.06
2023-06-15T03:43:09.846Z,14.06
2023-06-15T03:43:42.269Z,14.06
2023-06-15T03:44:14.755Z,14.02
2023-06-15T03:44:47.265Z,14.02
2023-06-15T03:45:19.882Z,14.04
2023-06-15T03:45:52.181Z,14.04
2023-06-15T03:46:24.693Z,14.04
2023-06-15T03:46:57.783Z,14.06
2023-06-15T03:47:30.286Z,14.07
2023-06-15T03:48:02.813Z,14.09
2023-06-15T03:48:35.182Z,14.07
2023-06-15T03:49:07.613Z,14.07
2023-06-15T03:49:40.027Z,14.07
2023-06-15T03:50:12.571Z,14.10
2023-06-15T03:50:45.029Z,14.12
2023-06-15T03:51:17.555Z,14.12
2023-06-15T03:51:50.076Z,14.13
2023-06-15T03:52:22.520Z,14.13
2023-06-15T03:52:54.981Z,14.14
2023-06-15T03:53:27.382Z,14.16
2023-06-15T03:53:59.817Z,14.14
2023-06-15T03:54:32.266Z,14.16
2023-06-15T03:55:04.694Z,14.17
2023-06-15T03:55:37.170Z,14.17
2023-06-15T03:56:09.637Z,14.19
2023-06-15T03:56:42.081Z,14.20
2023-06-15T03:57:14.500Z,14.17
2023-06-15T03:57:46.988Z,14.20
2023-06-15T03:58:19.471Z,14.20
2023-06-15T03:58:51.968Z,14.25
2023-06-15T03:59:24.458Z,14.25
2023-06-15T03:59:56.932Z,14.28
2023-06-15T04:00:29.378Z,14.28
2023-06-15T04:01:01.795Z,14.29
2023-06-15T04:01:34.303Z,14.28
2023-06-15T04:02:06.801Z,14.32
2023-06-15T04:02:39.344Z,14.31
2023-06-15T04:03:11.875Z,14.34
2023-06-15T04:03:44.322Z,14.37
2023-06-15T04:04:16.970Z,14.37
2023-06-15T04:04:49.221Z,14.39
2023-06-15T04:05:21.657Z,14.43
2023-06-15T04:05:54.157Z,14.44
2023-06-15T04:06:26.595Z,14.46
2023-06-15T04:06:59.049Z,14.47
2023-06-15T04:07:31.465Z,14.47
2023-06-15T04:08:03.954Z,14.49
2023-06-15T04:08:36.481Z,14.50
2023-06-15T04:09:08.974Z,14.50
2023-06-15T04:09:41.452Z,14.53
2023-06-15T04:10:13.931Z,14.54
2023-06-15T04:10:46.372Z,14.56
2023-06-15T04:11:18.935Z,14.56
2023-06-15T04:11:51.356Z,14.57
2023-06-15T04:12:23.777Z,14.60
2023-06-15T04:12:56.225Z,14.61
2023-06-15T04:13:28.661Z,14.64
2023-06-15T04:14:01.076Z,14.65
2023-06-15T04:14:33.529Z,14.65
2023-06-15T04:15:05.946Z,14.68
2023-06-15T04:15:38.381Z,14.67
2023-06-15T04:16:10.801Z,14.68
2023-06-15T04:16:43.280Z,14.69
2023-06-15T04:17:15.689Z,14.67
2023-06-15T04:17:48.166Z,14.69
2023-06-15T04:18:20.552Z,14.71
2023-06-15T04:18:53.054Z,14.71
2023-06-15T04:19:25.540Z,14.74
2023-06-15T04:19:58.049Z,14.72
2023-06-15T04:20:30.465Z,14.78
2023-06-15T04:21:02.908Z,14.78
2023-06-15T04:21:35.344Z,14.80
2023-06-15T04:22:07.779Z,14.83
2023-06-15T04:22:40.232Z,14.83
2023-06-15T04:23:12.742Z,14.83
2023-06-15T04:23:45.282Z,14.84
2023-06-15T04:24:17.655Z,14.81
2023-06-15T04:24:50.031Z,14.84
2023-06-15T04:25:22.503Z,14.86
2023-06-15T04:25:54.991Z,14.87
2023-06-15T04:26:27.464Z,14.88
2023-06-15T04:26:59.949Z,14.90
2023-06-15T04:27:32.466Z,14.90
2023-06-15T04:28:04.869Z,14.91
2023-06-15T04:28:37.318Z,14.93
2023-06-15T04:29:09.836Z,14.98
2023-06-15T04:29:42.297Z,14.99
2023-06-15T04:30:14.719Z,14.99
2023-06-15T04:30:47.137Z,15.02
2023-06-15T04:31:19.557Z,15.02
2023-06-15T04:31:52.001Z,15.03
2023-06-15T04:32:24.478Z,15.06
2023-06-15T04:32:56.938Z,15.08
2023-06-15T04:33:29.355Z,15.11
2023-06-15T04:34:01.853Z,15.12
2023-06-15T04:34:34.312Z,15.15
2023-06-15T04:35:06.786Z,15.17
2023-06-15T04:35:39.196Z,15.19
2023-06-15T04:36:11.608Z,15.19
2023-06-15T04:36:44.093Z,15.21
2023-06-15T04:37:16.496Z,15.23
2023-06-15T04:37:48.929Z,15.27
2023-06-15T04:38:21.419Z,15.28
2023-06-15T04:38:53.890Z,15.30
2023-06-15T04:39:26.368Z,15.31
2023-06-15T04:39:58.837Z,15.35
2023-06-15T04:40:31.250Z,15.38
2023-06-15T04:41:03.676Z,15.41
2023-06-15T04:41:36.203Z,15.43
2023-06-15T04:42:08.678Z,15.45
2023-06-15T04:42:41.102Z,15.48
2023-06-15T04:43:13.581Z,15.51
2023-06-15T04:43:46.052Z,15.56
2023-06-15T04:44:18.545Z,15.60
2023-06-15T04:44:51.039Z,15.63
2023-06-15T04:45:23.533Z,15.67
2023-06-15T04:45:56.012Z,15.68
2023-06-15T04:46:28.510Z,15.74
2023-06-15T04:47:00.991Z,15.76
2023-06-15T04:47:33.457Z,15.82
2023-06-15T04:48:06.003Z,15.85
2023-06-15T04:48:38.306Z,15.92
2023-06-15T04:49:10.907Z,15.94
2023-06-15T04:49:43.358Z,16.00
2023-06-15T04:50:15.828Z,16.04
2023-06-15T04:50:48.367Z,16.09
2023-06-15T04:51:21.475Z,16.16
2023-06-15T04:51:53.948Z,16.23
2023-06-15T04:52:26.348Z,16.30
2023-06-15T04:52:58.849Z,16.38
2023-06-15T04:53:31.339Z,16.44
2023-06-15T04:54:03.865Z,16.55
2023-06-15T04:54:36.292Z,16.67
2023-06-15T04:55:08.764Z,16.78
2023-06-15T04:55:41.260Z,16.92
2023-06-15T04:56:13.821Z,17.08
2023-06-15T04:56:46.302Z,17.26
2023-06-15T04:57:18.810Z,17.46
2023-06-15T04:57:51.253Z,17.69
2023-06-15T04:58:23.709Z,17.91
2023-06-15T04:58:56.135Z,18.13
2023-06-15T04:59:28.700Z,18.36
2023-06-15T05:00:01.140Z,18.55
2023-06-15T05:00:33.985Z,18.73
2023-06-15T05:01:06.068Z,18.87
2023-06-15T05:01:38.618Z,19.02
2023-06-15T05:02:11.137Z,19.21
2023-06-15T05:02:43.701Z,19.42
2023-06-15T05:03:16.175Z,19.58
2023-06-15T05:03:48.537Z,19.73
2023-06-15T05:04:21.011Z,19.93
2023-06-15T05:04:53.527Z,20.15
2023-06-15T05:05:26.037Z,20.39
2023-06-15T05:05:58.562Z,20.58
2023-06-15T05:06:31.100Z,20.74
2023-06-15T05:07:03.573Z,20.96
2023-06-15T05:07:36.015Z,21.16
2023-06-15T05:08:08.532Z,21.38
2023-06-15T05:08:41.108Z,21.56
2023-06-15T05:09:13.612Z,21.72
2023-06-15T05:09:47.170Z,21.82
2023-06-15T05:10:20.862Z,21.98
2023-06-15T05:10:52.249Z,22.13
2023-06-15T05:11:24.800Z,22.23
2023-06-15T05:11:57.326Z,22.31
2023-06-15T05:12:29.815Z,22.44
2023-06-15T05:13:02.344Z,22.53
2023-06-15T05:13:34.850Z,22.54
2023-06-15T05:14:07.425Z,22.53
2023-06-15T05:14:39.940Z,22.54
2023-06-15T05:15:12.401Z,22.57
2023-06-15T05:15:45.592Z,22.49
2023-06-15T05:16:18.133Z,22.47
2023-06-15T05:16:50.594Z,22.39
2023-06-15T05:17:23.088Z,22.29
2023-06-15T05:17:55.573Z,22.32
2023-06-15T05:18:27.942Z,22.32
2023-06-15T05:19:00.462Z,22.28
2023-06-15T05:19:33.058Z,22.29
2023-06-15T05:20:05.602Z,22.39
2023-06-15T05:20:38.057Z,22.53
2023-06-15T05:21:11.822Z,22.71
2023-06-15T05:21:42.971Z,22.93
2023-06-15T05:22:15.465Z,23.20
2023-06-15T05:22:47.984Z,23.43
2023-06-15T05:23:20.677Z,23.67
2023-06-15T05:23:53.219Z,23.71
2023-06-15T05:24:25.663Z,23.60
2023-06-15T05:24:58.138Z,23.38
2023-06-15T05:25:38.094Z,23.15
2023-06-15T05:26:28.941Z,23.08
2023-06-15T05:26:48.655Z,23.20
2023-06-15T05:27:21.128Z,23.26
2023-06-15T05:27:53.635Z,23.27
2023-06-15T05:28:27.563Z,23.35
2023-06-15T05:28:58.596Z,23.52
2023-06-15T05:29:31.057Z,23.64
2023-06-15T05:30:03.497Z,23.85
2023-06-15T05:30:35.967Z,24.00
2023-06-15T05:31:08.460Z,23.98
2023-06-15T05:31:40.961Z,24.00
2023-06-15T05:32:13.428Z,24.02
2023-06-15T05:32:45.951Z,24.16
2023-06-15T05:33:18.358Z,24.23
2023-06-15T05:33:50.848Z,24.26
2023-06-15T05:34:23.327Z,24.41
2023-06-15T05:34:55.995Z,24.60
2023-06-15T05:35:28.471Z,24.85
2023-06-15T05:36:06.749Z,25.10
2023-06-15T05:36:47.047Z,25.31
2023-06-15T05:37:05.995Z,25.52
2023-06-15T05:37:38.517Z,25.74
2023-06-15T05:38:11.033Z,25.75
2023-06-15T05:38:43.540Z,25.53
2023-06-15T05:39:16.038Z,25.37
2023-06-15T05:39:48.508Z,25.42
2023-06-15T05:40:20.970Z,25.37
2023-06-15T05:40:53.497Z,25.25
2023-06-15T05:41:25.975Z,25.22
2023-06-15T05:41:58.430Z,25.42
2023-06-15T05:42:30.881Z,25.59
2023-06-15T05:43:03.328Z,25.74
2023-06-15T05:43:35.844Z,25.71
2023-06-15T05:44:08.376Z,25.53
2023-06-15T05:44:40.922Z,25.44
2023-06-15T05:45:15.102Z,25.35
2023-06-15T05:45:50.599Z,25.42
2023-06-15T05:46:18.456Z,25.46
2023-06-15T05:46:50.891Z,25.50
2023-06-15T05:47:23.368Z,25.65
2023-06-15T05:48:02.897Z,25.77
2023-06-15T05:48:42.901Z,25.84
2023-06-15T05:49:15.361Z,26.01
2023-06-15T05:49:47.794Z,26.25
2023-06-15T05:50:20.266Z,26.47
2023-06-15T05:50:52.718Z,26.72
2023-06-15T05:51:25.143Z,26.83
2023-06-15T05:51:57.593Z,26.87
2023-06-15T05:52:30.510Z,26.94
2023-06-15T05:53:02.501Z,27.06
2023-06-15T05:53:34.923Z,27.28
2023-06-15T05:54:07.420Z,27.58
2023-06-15T05:54:39.901Z,27.85
2023-06-15T05:55:12.332Z,28.16
2023-06-15T05:55:44.787Z,28.38
2023-06-15T05:56:17.306Z,28.58
2023-06-15T05:56:49.712Z,28.73
2023-06-15T05:57:22.202Z,28.91
2023-06-15T05:57:54.670Z,29.13
2023-06-15T05:58:27.140Z,29.11
2023-06-15T05:58:59.575Z,29.10
2023-06-15T05:59:34.194Z,29.00
2023-06-15T06:00:04.519Z,28.65
2023-06-15T06:00:37.053Z,28.31
2023-06-15T06:01:10.154Z,27.89
2023-06-15T06:01:42.618Z,27.74
2023-06-15T06:02:15.869Z,27.74
2023-06-15T06:02:48.378Z,27.86
2023-06-15T06:03:27.989Z,27.98
2023-06-15T06:04:00.436Z,27.92
2023-06-15T06:04:32.871Z,27.86
2023-06-15T06:05:05.352Z,27.82
2023-06-15T06:05:37.867Z,27.80
2023-06-15T06:06:10.367Z,27.80
2023-06-15T06:06:42.902Z,27.80
2023-06-15T06:07:15.337Z,27.91
2023-06-15T06:07:47.823Z,27.98
2023-06-15T06:08:20.309Z,28.23
2023-06-15T06:08:52.838Z,28.47
2023-06-15T06:09:25.304Z,28.69
2023-06-15T06:09:57.754Z,28.91
2023-06-15T06:10:30.268Z,29.19
2023-06-15T06:11:02.770Z,29.44
2023-06-15T06:11:35.242Z,29.43
2023-06-15T06:12:07.701Z,29.15
2023-06-15T06:12:40.201Z,28.72
2023-06-15T06:13:12.658Z,28.28
2023-06-15T06:13:45.091Z,27.84
2023-06-15T06:14:17.658Z,27.47
2023-06-15T06:14:50.142Z,27.29
2023-06-15T06:15:22.951Z,27.28
2023-06-15T06:15:55.137Z,27.42
2023-06-15T06:16:27.620Z,27.54
2023-06-15T06:17:00.122Z,27.84
2023-06-15T06:17:49.448Z,28.09
2023-06-15T06:18:08.994Z,28.04
2023-06-15T06:18:37.659Z,27.92
2023-06-15T06:19:10.145Z,27.82
2023-06-15T06:19:42.641Z,27.84
2023-06-15T06:20:15.129Z,27.94
2023-06-15T06:20:47.572Z,28.04
2023-06-15T06:21:19.992Z,28.23
2023-06-15T06:21:52.421Z,28.29
2023-06-15T06:22:24.843Z,28.44
2023-06-15T06:22:57.268Z,28.51
2023-06-15T06:23:29.726Z,28.46
2023-06-15T06:24:02.203Z,28.54
2023-06-15T06:24:34.723Z,28.56
2023-06-15T06:25:07.188Z,28.54
2023-06-15T06:25:39.698Z,28.41
2023-06-15T06:26:12.141Z,28.28
2023-06-15T06:26:44.570Z,28.21
2023-06-15T06:27:17.035Z,28.06
2023-06-15T06:27:49.523Z,27.85
2023-06-15T06:28:22.013Z,27.84
2023-06-15T06:28:54.513Z,27.92
2023-06-15T06:29:26.989Z,28.04
2023-06-15T06:29:59.491Z,28.07
2023-06-15T06:30:32.013Z,28.11
2023-06-15T06:31:04.495Z,28.33
2023-06-15T06:31:36.977Z,28.66
2023-06-15T06:32:09.433Z,29.11
2023-06-15T06:32:41.871Z,29.49
2023-06-15T06:33:14.419Z,29.75
2023-06-15T06:33:46.767Z,30.11
2023-06-15T06:34:19.313Z,30.52
2023-06-15T06:34:51.791Z,30.76
2023-06-15T06:35:24.298Z,30.65
2023-06-15T06:35:56.760Z,30.34
2023-06-15T06:36:29.249Z,30.21
2023-06-15T06:37:01.877Z,29.93
2023-06-15T06:37:34.131Z,29.81
2023-06-15T06:38:06.633Z,29.90
2023-06-15T06:38:46.293Z,29.86
2023-06-15T06:39:11.650Z,29.56
2023-06-15T06:39:44.199Z,29.35
2023-06-15T06:40:16.675Z,29.34
2023-06-15T06:40:49.166Z,29.60
2023-06-15T06:41:21.688Z,29.94
2023-06-15T06:41:54.121Z,30.31
2023-06-15T06:42:26.573Z,30.62
2023-06-15T06:42:59.014Z,31.01
2023-06-15T06:43:31.490Z,31.26
2023-06-15T06:44:03.981Z,31.54
2023-06-15T06:44:36.478Z,31.87
2023-06-15T06:45:09.004Z,32.21
2023-06-15T06:45:41.432Z,32.51
2023-06-15T06:46:13.927Z,32.59
2023-06-15T06:46:46.398Z,32.42
2023-06-15T06:47:18.935Z,32.22
2023-06-15T06:47:51.508Z,32.37
2023-06-15T06:48:23.981Z,32.61
2023-06-15T06:48:56.462Z,32.48
2023-06-15T06:49:28.905Z,32.30
2023-06-15T06:50:01.394Z,31.99
2023-06-15T06:50:33.898Z,31.85
2023-06-15T06:51:08.397Z,31.82
2023-06-15T06:51:38.764Z,31.92
2023-06-15T06:52:11.196Z,31.68
2023-06-15T06:52:43.848Z,31.21
2023-06-15T06:53:16.070Z,30.81
2023-06-15T06:53:48.562Z,30.69
2023-06-15T06:54:21.084Z,30.90
2023-06-15T06:54:53.588Z,31.11
2023-06-15T06:55:26.084Z,31.26
2023-06-15T06:55:58.600Z,31.49
2023-06-15T06:56:31.136Z,31.76
2023-06-15T06:57:03.669Z,32.20
2023-06-15T06:57:36.141Z,32.54
2023-06-15T06:58:08.590Z,32.95
2023-06-15T06:58:41.039Z,33.34
2023-06-15T06:59:13.472Z,33.73
2023-06-15T06:59:45.945Z,34.07
2023-06-15T07:00:18.427Z,34.48